Ginys del Meteocat
Campanya meteocatpedra

Dades de l'estació automàtica Aitona

?
?
Resum diari 22:00 TU
Dades diàries de l'estació meteorològica
Temperatura mitjana 11.6 °C
Temperatura màxima 18.4 °C 13:57 TU
Temperatura mínima 6.7 °C 4:09 TU
Humitat relativa mitjana 85%
Precipitació acumulada 0.1 mm
Ratxa màxima del vent (2 m) 12.6 km/h - 48º 14:23 TU
Irradiació solar global 12.1 MJ/m2

El tram horari està expressat en Temps Universal (TU). Cal sumar una hora en horari d'hivern i dues en horari d'estiu per passar a l'hora oficial.

Aitona

Metadades estació meteorol´gica
Municipi Aitona
Comarca Segrià
Altitud 97 m
Data alta 12.03.1998
Estat actual Operativa
Dades de període
Període
TU
TM
°C
TX
°C
TN
°C
HRM
%
PPT
mm
VVM (2 m)
km/h
DVM (2 m)
graus
VVX (2 m)
km/h
RS
W/m2
00:00 - 00:30 10.4 10.6 10.0 95 0.0 0.7 219 2.9 0
00:30 - 01:00 9.5 10.0 9.1 95 0.0 0.4 106 2.9 0
01:00 - 01:30 8.9 9.7 8.5 96 0.0 0.0 67 1.8 0
01:30 - 02:00 8.0 8.7 7.7 97 0.0 0.4 178 2.5 0
02:00 - 02:30 7.7 8.0 7.3 97 0.0 0.4 195 2.2 0
02:30 - 03:00 7.4 7.7 7.1 97 0.0 0.4 188 2.2 0
03:00 - 03:30 7.1 7.4 7.0 97 0.0 0.4 199 2.2 0
03:30 - 04:00 6.9 7.0 6.7 97 0.0 0.4 217 2.2 0
04:00 - 04:30 6.9 7.2 6.7 97 0.0 0.4 219 1.8 0
04:30 - 05:00 7.2 7.5 7.0 98 0.0 0.0 0 0.0 0
05:00 - 05:30 7.7 7.8 7.6 98 0.0 0.0 220 1.8 0
05:30 - 06:00 7.7 7.9 7.6 98 0.0 0.0 220 1.4 0
06:00 - 06:30 7.5 7.6 7.4 98 0.0 0.0 207 1.1 2
06:30 - 07:00 7.9 8.3 7.4 98 0.1 0.0 0 0.0 17
07:00 - 07:30 8.5 8.9 8.3 98 0.0 0.0 0 0.0 28
07:30 - 08:00 9.3 9.9 8.9 98 0.0 0.0 91 1.4 91
08:00 - 08:30 10.1 10.6 9.9 98 0.0 0.4 183 3.2 120
08:30 - 09:00 10.8 11.1 10.5 97 0.0 1.8 203 4.0 173
09:00 - 09:30 11.3 11.6 11.1 93 0.0 1.4 197 3.6 149
09:30 - 10:00 12.1 12.4 11.6 86 0.0 0.7 191 3.2 224
10:00 - 10:30 13.4 14.6 12.3 80 0.0 1.4 313 5.4 483
10:30 - 11:00 15.0 15.4 14.6 71 0.0 2.2 218 7.6 589
11:00 - 11:30 15.1 15.5 14.8 68 0.0 2.2 21 7.6 587
11:30 - 12:00 15.5 16.5 14.9 68 0.0 2.5 24 9.0 622
12:00 - 12:30 16.4 16.8 15.8 63 0.0 2.9 218 10.8 620
12:30 - 13:00 16.8 17.5 16.1 61 0.0 2.2 19 7.6 596
13:00 - 13:30 17.5 18.1 17.0 57 0.0 2.5 345 8.3 564
13:30 - 14:00 18.0 18.4 17.5 55 0.0 2.5 87 7.9 506
14:00 - 14:30 17.7 18.2 17.3 57 0.0 3.6 29 12.6 438
14:30 - 15:00 17.5 17.6 17.3 59 0.0 4.3 38 12.6 346
15:00 - 15:30 17.3 17.4 17.2 59 0.0 4.3 42 11.5 250
15:30 - 16:00 17.3 17.4 17.1 58 0.0 5.0 22 9.7 201
16:00 - 16:30 16.7 17.0 16.1 62 0.0 4.3 33 9.4 98
16:30 - 17:00 16.1 16.3 15.8 64 0.0 3.2 31 6.5 46
17:00 - 17:30 14.7 15.8 13.1 72 0.0 1.8 46 5.4 3
17:30 - 18:00 12.3 13.1 11.6 88 0.0 0.7 70 2.9 0
18:00 - 18:30 11.2 11.5 10.9 93 0.0 0.0 70 1.4 0
18:30 - 19:00 10.6 10.9 10.3 94 0.0 0.0 195 1.1 0
19:00 - 19:30 10.3 10.5 10.1 95 0.0 0.0 125 1.1 0
19:30 - 20:00 10.3 10.7 10.0 96 0.0 0.7 56 3.2 0
20:00 - 20:30 10.3 10.7 9.9 96 0.0 0.4 214 2.9 0
20:30 - 21:00 10.0 10.2 9.6 96 0.0 0.0 247 1.4 0
21:00 - 21:30 9.6 9.8 9.4 96 0.0 0.0 324 1.1 0
21:30 - 22:00 9.4 9.5 9.1 97 0.0 0.0 59 2.2 0
22:00 - 22:30 9.1 9.3 8.8 97 0.0 0.0 107 1.1 0
22:30 - 23:00 (s/d) (s/d) (s/d) (s/d) (s/d) (s/d) (s/d) (s/d) (s/d)

Les dades en taronja només han passat un control de qualitat automàtic. Resta pendent la seva validació definitiva.